sensor_id;sensor_type;location;lat;lon;timestamp;temperature;humidity
61398;DHT22;47267;48.130;-2.040;2023-11-22T00:01:55;20.20;58.60
61398;DHT22;47267;48.130;-2.040;2023-11-22T00:04:21;20.10;58.60
61398;DHT22;47267;48.130;-2.040;2023-11-22T00:06:47;20.10;58.70
61398;DHT22;47267;48.130;-2.040;2023-11-22T00:09:13;20.10;58.60
61398;DHT22;47267;48.130;-2.040;2023-11-22T00:11:38;20.10;58.60
61398;DHT22;47267;48.130;-2.040;2023-11-22T00:14:04;20.10;58.60
61398;DHT22;47267;48.130;-2.040;2023-11-22T00:16:30;20.10;58.60
61398;DHT22;47267;48.130;-2.040;2023-11-22T00:18:55;20.10;58.60
61398;DHT22;47267;48.130;-2.040;2023-11-22T00:21:21;20.10;58.60
61398;DHT22;47267;48.130;-2.040;2023-11-22T00:23:47;20.10;58.60
61398;DHT22;47267;48.130;-2.040;2023-11-22T00:26:12;20.10;58.60
61398;DHT22;47267;48.130;-2.040;2023-11-22T00:28:38;20.10;58.60
61398;DHT22;47267;48.130;-2.040;2023-11-22T00:31:04;20.20;58.60
61398;DHT22;47267;48.130;-2.040;2023-11-22T00:33:29;20.10;58.60
61398;DHT22;47267;48.130;-2.040;2023-11-22T00:35:57;20.10;58.60
61398;DHT22;47267;48.130;-2.040;2023-11-22T00:38:23;20.10;58.60
61398;DHT22;47267;48.130;-2.040;2023-11-22T00:40:49;20.10;58.60
61398;DHT22;47267;48.130;-2.040;2023-11-22T00:43:15;20.10;58.60
61398;DHT22;47267;48.130;-2.040;2023-11-22T00:45:41;20.10;58.50
61398;DHT22;47267;48.130;-2.040;2023-11-22T00:48:07;20.10;58.60
61398;DHT22;47267;48.130;-2.040;2023-11-22T00:50:33;20.10;58.50
61398;DHT22;47267;48.130;-2.040;2023-11-22T00:52:58;20.10;58.50
61398;DHT22;47267;48.130;-2.040;2023-11-22T00:55:27;20.10;58.50
61398;DHT22;47267;48.130;-2.040;2023-11-22T00:57:52;20.10;58.50
61398;DHT22;47267;48.130;-2.040;2023-11-22T01:00:18;20.10;58.50
61398;DHT22;47267;48.130;-2.040;2023-11-22T01:02:44;20.10;58.50
61398;DHT22;47267;48.130;-2.040;2023-11-22T01:05:09;20.10;58.50
61398;DHT22;47267;48.130;-2.040;2023-11-22T01:07:39;20.10;58.50
61398;DHT22;47267;48.130;-2.040;2023-11-22T01:10:05;20.10;58.50
61398;DHT22;47267;48.130;-2.040;2023-11-22T01:12:31;20.10;58.50
61398;DHT22;47267;48.130;-2.040;2023-11-22T01:14:57;20.10;58.50
61398;DHT22;47267;48.130;-2.040;2023-11-22T01:17:23;20.10;58.50
61398;DHT22;47267;48.130;-2.040;2023-11-22T01:19:49;20.10;58.50
61398;DHT22;47267;48.130;-2.040;2023-11-22T01:22:16;20.10;58.50
61398;DHT22;47267;48.130;-2.040;2023-11-22T01:24:42;20.10;58.50
61398;DHT22;47267;48.130;-2.040;2023-11-22T01:27:08;20.10;58.50
61398;DHT22;47267;48.130;-2.040;2023-11-22T01:29:34;20.10;58.50
61398;DHT22;47267;48.130;-2.040;2023-11-22T01:32:00;20.10;58.50
61398;DHT22;47267;48.130;-2.040;2023-11-22T01:34:26;20.10;58.50
61398;DHT22;47267;48.130;-2.040;2023-11-22T01:36:52;20.10;58.50
61398;DHT22;47267;48.130;-2.040;2023-11-22T01:39:18;20.10;58.50
61398;DHT22;47267;48.130;-2.040;2023-11-22T01:41:47;20.10;58.50
61398;DHT22;47267;48.130;-2.040;2023-11-22T01:44:17;20.10;58.50
61398;DHT22;47267;48.130;-2.040;2023-11-22T01:46:43;20.10;58.50
61398;DHT22;47267;48.130;-2.040;2023-11-22T01:49:10;20.10;58.50
61398;DHT22;47267;48.130;-2.040;2023-11-22T01:51:39;20.10;58.50
61398;DHT22;47267;48.130;-2.040;2023-11-22T01:54:07;20.10;58.50
61398;DHT22;47267;48.130;-2.040;2023-11-22T01:56:35;20.10;59.10
61398;DHT22;47267;48.130;-2.040;2023-11-22T01:59:03;20.10;58.50
61398;DHT22;47267;48.130;-2.040;2023-11-22T02:01:30;20.10;58.50
61398;DHT22;47267;48.130;-2.040;2023-11-22T02:03:57;20.10;58.50
61398;DHT22;47267;48.130;-2.040;2023-11-22T02:06:23;20.10;58.50
61398;DHT22;47267;48.130;-2.040;2023-11-22T02:08:50;20.10;58.50
61398;DHT22;47267;48.130;-2.040;2023-11-22T02:11:19;20.10;58.50
61398;DHT22;47267;48.130;-2.040;2023-11-22T02:13:48;20.10;58.50
61398;DHT22;47267;48.130;-2.040;2023-11-22T02:16:15;20.10;58.50
61398;DHT22;47267;48.130;-2.040;2023-11-22T02:18:44;20.10;58.50
61398;DHT22;47267;48.130;-2.040;2023-11-22T02:21:09;20.10;58.50
61398;DHT22;47267;48.130;-2.040;2023-11-22T02:23:36;20.10;58.50
61398;DHT22;47267;48.130;-2.040;2023-11-22T02:26:02;20.10;58.50
61398;DHT22;47267;48.130;-2.040;2023-11-22T02:28:28;20.10;58.50
61398;DHT22;47267;48.130;-2.040;2023-11-22T02:30:53;20.10;58.50
61398;DHT22;47267;48.130;-2.040;2023-11-22T02:33:20;20.10;58.40
61398;DHT22;47267;48.130;-2.040;2023-11-22T02:35:46;20.10;58.50
61398;DHT22;47267;48.130;-2.040;2023-11-22T02:38:11;20.10;58.40
61398;DHT22;47267;48.130;-2.040;2023-11-22T02:40:37;20.10;58.50
61398;DHT22;47267;48.130;-2.040;2023-11-22T02:43:03;20.10;58.40
61398;DHT22;47267;48.130;-2.040;2023-11-22T02:45:34;20.10;58.50
61398;DHT22;47267;48.130;-2.040;2023-11-22T02:48:00;20.10;58.50
61398;DHT22;47267;48.130;-2.040;2023-11-22T02:50:29;20.10;58.40
61398;DHT22;47267;48.130;-2.040;2023-11-22T02:52:55;20.10;59.00
61398;DHT22;47267;48.130;-2.040;2023-11-22T02:55:20;20.10;58.50
61398;DHT22;47267;48.130;-2.040;2023-11-22T02:57:46;20.10;58.40
61398;DHT22;47267;48.130;-2.040;2023-11-22T03:00:12;20.10;58.50
61398;DHT22;47267;48.130;-2.040;2023-11-22T03:02:41;20.10;58.40
61398;DHT22;47267;48.130;-2.040;2023-11-22T03:05:09;20.10;58.40
61398;DHT22;47267;48.130;-2.040;2023-11-22T03:07:36;20.10;58.40
61398;DHT22;47267;48.130;-2.040;2023-11-22T03:10:03;20.10;58.40
61398;DHT22;47267;48.130;-2.040;2023-11-22T03:12:29;20.10;58.40
61398;DHT22;47267;48.130;-2.040;2023-11-22T03:14:55;20.10;58.40
61398;DHT22;47267;48.130;-2.040;2023-11-22T03:17:25;20.10;58.40
61398;DHT22;47267;48.130;-2.040;2023-11-22T03:19:51;20.10;58.40
61398;DHT22;47267;48.130;-2.040;2023-11-22T03:22:17;20.10;58.40
61398;DHT22;47267;48.130;-2.040;2023-11-22T03:24:42;20.10;58.40
61398;DHT22;47267;48.130;-2.040;2023-11-22T03:27:08;20.10;58.40
61398;DHT22;47267;48.130;-2.040;2023-11-22T03:29:37;20.10;58.40
61398;DHT22;47267;48.130;-2.040;2023-11-22T03:32:03;20.10;58.40
61398;DHT22;47267;48.130;-2.040;2023-11-22T03:34:29;20.10;58.40
61398;DHT22;47267;48.130;-2.040;2023-11-22T03:36:55;20.10;58.40
61398;DHT22;47267;48.130;-2.040;2023-11-22T03:39:20;20.10;58.40
61398;DHT22;47267;48.130;-2.040;2023-11-22T03:41:46;20.10;59.00
61398;DHT22;47267;48.130;-2.040;2023-11-22T03:44:12;20.10;58.40
61398;DHT22;47267;48.130;-2.040;2023-11-22T03:46:38;20.10;58.40
61398;DHT22;47267;48.130;-2.040;2023-11-22T03:49:05;20.10;58.30
61398;DHT22;47267;48.130;-2.040;2023-11-22T03:51:32;20.10;58.40
61398;DHT22;47267;48.130;-2.040;2023-11-22T03:53:58;20.10;58.30
61398;DHT22;47267;48.130;-2.040;2023-11-22T03:56:24;20.10;58.40
61398;DHT22;47267;48.130;-2.040;2023-11-22T03:58:50;20.10;58.30
61398;DHT22;47267;48.130;-2.040;2023-11-22T04:01:16;20.10;58.30
61398;DHT22;47267;48.130;-2.040;2023-11-22T04:03:42;20.10;58.30
61398;DHT22;47267;48.130;-2.040;2023-11-22T04:06:08;20.10;58.30
61398;DHT22;47267;48.130;-2.040;2023-11-22T04:08:34;20.10;58.30
61398;DHT22;47267;48.130;-2.040;2023-11-22T04:10:59;20.10;58.30
61398;DHT22;47267;48.130;-2.040;2023-11-22T04:13:25;20.00;58.30
61398;DHT22;47267;48.130;-2.040;2023-11-22T04:15:51;20.10;58.30
61398;DHT22;47267;48.130;-2.040;2023-11-22T04:18:17;20.00;58.30
61398;DHT22;47267;48.130;-2.040;2023-11-22T04:20:42;20.00;58.30
61398;DHT22;47267;48.130;-2.040;2023-11-22T04:23:08;20.00;58.30
61398;DHT22;47267;48.130;-2.040;2023-11-22T04:25:39;20.00;58.20
61398;DHT22;47267;48.130;-2.040;2023-11-22T04:28:06;20.00;58.30
61398;DHT22;47267;48.130;-2.040;2023-11-22T04:30:34;20.00;58.20
61398;DHT22;47267;48.130;-2.040;2023-11-22T04:32:59;20.00;58.20
61398;DHT22;47267;48.130;-2.040;2023-11-22T04:35:25;20.00;58.20
61398;DHT22;47267;48.130;-2.040;2023-11-22T04:37:51;20.00;58.20
61398;DHT22;47267;48.130;-2.040;2023-11-22T04:40:16;20.00;58.20
61398;DHT22;47267;48.130;-2.040;2023-11-22T04:42:43;20.10;58.30
61398;DHT22;47267;48.130;-2.040;2023-11-22T04:45:09;20.00;58.20
61398;DHT22;47267;48.130;-2.040;2023-11-22T04:47:35;20.00;58.20
61398;DHT22;47267;48.130;-2.040;2023-11-22T04:50:01;20.00;58.20
61398;DHT22;47267;48.130;-2.040;2023-11-22T04:52:26;20.00;58.20
61398;DHT22;47267;48.130;-2.040;2023-11-22T04:54:52;20.00;58.20
61398;DHT22;47267;48.130;-2.040;2023-11-22T04:57:18;20.00;58.20
61398;DHT22;47267;48.130;-2.040;2023-11-22T04:59:44;20.00;58.80
61398;DHT22;47267;48.130;-2.040;2023-11-22T05:02:11;20.00;58.20
61398;DHT22;47267;48.130;-2.040;2023-11-22T05:04:37;20.00;58.20
61398;DHT22;47267;48.130;-2.040;2023-11-22T05:07:02;20.00;58.20
61398;DHT22;47267;48.130;-2.040;2023-11-22T05:09:28;20.00;58.20
61398;DHT22;47267;48.130;-2.040;2023-11-22T05:11:54;20.00;58.20
61398;DHT22;47267;48.130;-2.040;2023-11-22T05:14:20;20.00;58.20
61398;DHT22;47267;48.130;-2.040;2023-11-22T05:16:46;20.00;58.20
61398;DHT22;47267;48.130;-2.040;2023-11-22T05:19:12;20.00;58.20
61398;DHT22;47267;48.130;-2.040;2023-11-22T05:21:37;20.00;58.20
61398;DHT22;47267;48.130;-2.040;2023-11-22T05:24:03;20.00;58.20
61398;DHT22;47267;48.130;-2.040;2023-11-22T05:26:29;20.00;58.20
61398;DHT22;47267;48.130;-2.040;2023-11-22T05:28:55;20.00;58.20
61398;DHT22;47267;48.130;-2.040;2023-11-22T05:31:20;20.00;58.20
61398;DHT22;47267;48.130;-2.040;2023-11-22T05:33:46;20.00;58.20
61398;DHT22;47267;48.130;-2.040;2023-11-22T05:36:12;20.00;58.10
61398;DHT22;47267;48.130;-2.040;2023-11-22T05:38:38;20.00;58.10
61398;DHT22;47267;48.130;-2.040;2023-11-22T05:41:05;20.00;58.10
61398;DHT22;47267;48.130;-2.040;2023-11-22T05:43:30;20.00;58.10
61398;DHT22;47267;48.130;-2.040;2023-11-22T05:45:56;20.00;58.10
61398;DHT22;47267;48.130;-2.040;2023-11-22T05:48:22;20.00;58.20
61398;DHT22;47267;48.130;-2.040;2023-11-22T05:50:48;20.00;58.10
61398;DHT22;47267;48.130;-2.040;2023-11-22T05:53:14;20.00;58.10
61398;DHT22;47267;48.130;-2.040;2023-11-22T05:55:48;20.00;58.10
61398;DHT22;47267;48.130;-2.040;2023-11-22T05:58:14;20.00;58.10
61398;DHT22;47267;48.130;-2.040;2023-11-22T06:00:45;20.00;58.10
61398;DHT22;47267;48.130;-2.040;2023-11-22T06:03:12;20.00;58.10
61398;DHT22;47267;48.130;-2.040;2023-11-22T06:05:39;20.00;58.10
61398;DHT22;47267;48.130;-2.040;2023-11-22T06:08:04;20.00;58.10
61398;DHT22;47267;48.130;-2.040;2023-11-22T06:10:30;20.00;58.10
61398;DHT22;47267;48.130;-2.040;2023-11-22T06:12:56;20.00;58.10
61398;DHT22;47267;48.130;-2.040;2023-11-22T06:15:22;20.00;58.10
61398;DHT22;47267;48.130;-2.040;2023-11-22T06:17:48;20.00;58.20
61398;DHT22;47267;48.130;-2.040;2023-11-22T06:20:15;20.00;58.10
61398;DHT22;47267;48.130;-2.040;2023-11-22T06:22:41;20.00;58.10
61398;DHT22;47267;48.130;-2.040;2023-11-22T06:25:11;19.90;58.00
61398;DHT22;47267;48.130;-2.040;2023-11-22T06:27:37;20.00;58.10
61398;DHT22;47267;48.130;-2.040;2023-11-22T06:30:04;20.00;58.10
61398;DHT22;47267;48.130;-2.040;2023-11-22T06:32:32;20.00;58.10
61398;DHT22;47267;48.130;-2.040;2023-11-22T06:34:57;19.90;58.00
61398;DHT22;47267;48.130;-2.040;2023-11-22T06:37:23;20.00;58.10
61398;DHT22;47267;48.130;-2.040;2023-11-22T06:39:49;20.00;58.10
61398;DHT22;47267;48.130;-2.040;2023-11-22T06:42:16;20.00;58.10
61398;DHT22;47267;48.130;-2.040;2023-11-22T06:44:42;20.00;58.10
61398;DHT22;47267;48.130;-2.040;2023-11-22T06:47:08;20.00;58.10
61398;DHT22;47267;48.130;-2.040;2023-11-22T06:49:33;20.00;58.10
61398;DHT22;47267;48.130;-2.040;2023-11-22T06:51:59;20.00;58.10
61398;DHT22;47267;48.130;-2.040;2023-11-22T06:54:25;20.00;58.10
61398;DHT22;47267;48.130;-2.040;2023-11-22T06:56:51;20.00;58.10
61398;DHT22;47267;48.130;-2.040;2023-11-22T06:59:17;20.00;58.10
61398;DHT22;47267;48.130;-2.040;2023-11-22T07:01:44;20.00;58.10
61398;DHT22;47267;48.130;-2.040;2023-11-22T07:04:10;20.00;58.10
61398;DHT22;47267;48.130;-2.040;2023-11-22T07:06:36;20.00;58.10
61398;DHT22;47267;48.130;-2.040;2023-11-22T07:09:05;20.00;58.10
61398;DHT22;47267;48.130;-2.040;2023-11-22T07:11:35;20.00;58.10
61398;DHT22;47267;48.130;-2.040;2023-11-22T07:14:02;20.00;58.10
61398;DHT22;47267;48.130;-2.040;2023-11-22T07:16:29;19.90;58.00
61398;DHT22;47267;48.130;-2.040;2023-11-22T07:18:56;20.00;58.10
61398;DHT22;47267;48.130;-2.040;2023-11-22T07:21:22;20.00;58.10
61398;DHT22;47267;48.130;-2.040;2023-11-22T07:23:48;20.00;58.70
61398;DHT22;47267;48.130;-2.040;2023-11-22T07:26:14;20.00;58.10
61398;DHT22;47267;48.130;-2.040;2023-11-22T07:28:41;20.00;58.10
61398;DHT22;47267;48.130;-2.040;2023-11-22T07:31:09;20.00;58.10
61398;DHT22;47267;48.130;-2.040;2023-11-22T07:33:36;20.00;58.10
61398;DHT22;47267;48.130;-2.040;2023-11-22T07:36:05;19.90;58.00
61398;DHT22;47267;48.130;-2.040;2023-11-22T07:38:31;20.00;58.10
61398;DHT22;47267;48.130;-2.040;2023-11-22T07:40:57;19.90;58.00
61398;DHT22;47267;48.130;-2.040;2023-11-22T07:43:23;19.90;58.00
61398;DHT22;47267;48.130;-2.040;2023-11-22T07:45:49;20.00;58.10
61398;DHT22;47267;48.130;-2.040;2023-11-22T07:48:16;19.90;58.00
61398;DHT22;47267;48.130;-2.040;2023-11-22T07:50:42;20.00;58.10
61398;DHT22;47267;48.130;-2.040;2023-11-22T07:53:10;19.90;58.00
61398;DHT22;47267;48.130;-2.040;2023-11-22T07:55:37;19.90;58.00
61398;DHT22;47267;48.130;-2.040;2023-11-22T07:58:03;20.00;58.10
61398;DHT22;47267;48.130;-2.040;2023-11-22T08:00:32;19.90;58.00
61398;DHT22;47267;48.130;-2.040;2023-11-22T08:03:02;20.00;58.10
61398;DHT22;47267;48.130;-2.040;2023-11-22T08:05:30;19.90;58.00
61398;DHT22;47267;48.130;-2.040;2023-11-22T08:08:05;20.00;58.10
61398;DHT22;47267;48.130;-2.040;2023-11-22T08:10:37;20.00;58.10
61398;DHT22;47267;48.130;-2.040;2023-11-22T08:13:03;20.00;58.10
61398;DHT22;47267;48.130;-2.040;2023-11-22T08:15:29;20.00;58.10
61398;DHT22;47267;48.130;-2.040;2023-11-22T08:17:57;20.00;58.10
61398;DHT22;47267;48.130;-2.040;2023-11-22T08:20:24;20.00;58.10
61398;DHT22;47267;48.130;-2.040;2023-11-22T08:22:51;19.90;58.00
61398;DHT22;47267;48.130;-2.040;2023-11-22T08:25:17;19.90;58.00
61398;DHT22;47267;48.130;-2.040;2023-11-22T08:27:43;19.90;58.00
61398;DHT22;47267;48.130;-2.040;2023-11-22T08:30:10;19.90;58.00
61398;DHT22;47267;48.130;-2.040;2023-11-22T08:32:42;20.00;58.10
61398;DHT22;47267;48.130;-2.040;2023-11-22T08:35:09;19.90;58.00
61398;DHT22;47267;48.130;-2.040;2023-11-22T08:37:35;19.90;58.00
61398;DHT22;47267;48.130;-2.040;2023-11-22T08:40:05;19.90;58.00
61398;DHT22;47267;48.130;-2.040;2023-11-22T08:42:31;19.90;58.00
61398;DHT22;47267;48.130;-2.040;2023-11-22T08:44:56;19.90;58.00
61398;DHT22;47267;48.130;-2.040;2023-11-22T08:47:22;19.90;58.00
61398;DHT22;47267;48.130;-2.040;2023-11-22T08:49:48;19.90;58.00
61398;DHT22;47267;48.130;-2.040;2023-11-22T08:52:14;19.90;58.00
61398;DHT22;47267;48.130;-2.040;2023-11-22T08:54:39;19.90;58.10
61398;DHT22;47267;48.130;-2.040;2023-11-22T08:57:06;19.90;58.00
61398;DHT22;47267;48.130;-2.040;2023-11-22T08:59:33;19.90;58.00
61398;DHT22;47267;48.130;-2.040;2023-11-22T09:02:04;19.90;58.00
61398;DHT22;47267;48.130;-2.040;2023-11-22T09:04:30;19.90;58.00
61398;DHT22;47267;48.130;-2.040;2023-11-22T09:06:57;19.90;58.00
61398;DHT22;47267;48.130;-2.040;2023-11-22T09:09:23;19.90;58.00
61398;DHT22;47267;48.130;-2.040;2023-11-22T09:11:57;19.90;58.00
61398;DHT22;47267;48.130;-2.040;2023-11-22T09:14:23;19.90;58.10
61398;DHT22;47267;48.130;-2.040;2023-11-22T09:16:50;19.90;58.10
61398;DHT22;47267;48.130;-2.040;2023-11-22T09:19:20;19.90;58.00
61398;DHT22;47267;48.130;-2.040;2023-11-22T09:21:46;19.90;58.00
61398;DHT22;47267;48.130;-2.040;2023-11-22T09:24:12;19.90;58.00
61398;DHT22;47267;48.130;-2.040;2023-11-22T09:26:38;19.90;58.00
61398;DHT22;47267;48.130;-2.040;2023-11-22T09:29:04;19.90;58.00
61398;DHT22;47267;48.130;-2.040;2023-11-22T09:31:30;19.90;58.00
61398;DHT22;47267;48.130;-2.040;2023-11-22T09:33:56;19.90;58.00
61398;DHT22;47267;48.130;-2.040;2023-11-22T09:36:22;19.90;58.00
61398;DHT22;47267;48.130;-2.040;2023-11-22T09:38:50;19.90;58.00
61398;DHT22;47267;48.130;-2.040;2023-11-22T09:41:17;19.90;58.00
61398;DHT22;47267;48.130;-2.040;2023-11-22T09:43:43;19.90;58.00
61398;DHT22;47267;48.130;-2.040;2023-11-22T09:46:13;19.90;58.00
61398;DHT22;47267;48.130;-2.040;2023-11-22T09:48:39;19.90;58.00
61398;DHT22;47267;48.130;-2.040;2023-11-22T09:51:19;19.90;58.00
61398;DHT22;47267;48.130;-2.040;2023-11-22T09:53:57;19.90;58.00
61398;DHT22;47267;48.130;-2.040;2023-11-22T09:56:30;19.90;58.00
61398;DHT22;47267;48.130;-2.040;2023-11-22T09:58:59;19.90;58.00
61398;DHT22;47267;48.130;-2.040;2023-11-22T10:01:27;19.90;58.00
61398;DHT22;47267;48.130;-2.040;2023-11-22T10:03:57;19.90;58.00
61398;DHT22;47267;48.130;-2.040;2023-11-22T10:06:23;19.90;58.00
61398;DHT22;47267;48.130;-2.040;2023-11-22T10:08:49;19.90;58.00
61398;DHT22;47267;48.130;-2.040;2023-11-22T10:11:16;19.90;58.00
61398;DHT22;47267;48.130;-2.040;2023-11-22T10:13:50;19.90;58.00
61398;DHT22;47267;48.130;-2.040;2023-11-22T10:16:17;19.90;58.00
61398;DHT22;47267;48.130;-2.040;2023-11-22T10:18:45;19.90;58.10
61398;DHT22;47267;48.130;-2.040;2023-11-22T10:21:26;19.90;58.00
61398;DHT22;47267;48.130;-2.040;2023-11-22T10:23:53;19.90;58.00
61398;DHT22;47267;48.130;-2.040;2023-11-22T10:26:19;19.90;58.00
61398;DHT22;47267;48.130;-2.040;2023-11-22T10:28:45;19.90;58.00
61398;DHT22;47267;48.130;-2.040;2023-11-22T10:31:11;19.90;58.00
61398;DHT22;47267;48.130;-2.040;2023-11-22T10:33:42;19.80;58.00
61398;DHT22;47267;48.130;-2.040;2023-11-22T10:36:08;19.90;58.00
61398;DHT22;47267;48.130;-2.040;2023-11-22T10:38:34;19.90;58.00
61398;DHT22;47267;48.130;-2.040;2023-11-22T10:41:07;19.90;58.00
61398;DHT22;47267;48.130;-2.040;2023-11-22T10:43:34;19.90;58.00
61398;DHT22;47267;48.130;-2.040;2023-11-22T10:46:02;19.90;58.00
61398;DHT22;47267;48.130;-2.040;2023-11-22T10:48:28;19.90;58.00
61398;DHT22;47267;48.130;-2.040;2023-11-22T10:50:57;19.80;57.90
61398;DHT22;47267;48.130;-2.040;2023-11-22T10:53:35;19.80;57.90
61398;DHT22;47267;48.130;-2.040;2023-11-22T10:56:07;19.80;57.90
61398;DHT22;47267;48.130;-2.040;2023-11-22T11:01:09;19.90;58.00
61398;DHT22;47267;48.130;-2.040;2023-11-22T11:03:37;19.90;58.00
61398;DHT22;47267;48.130;-2.040;2023-11-22T11:06:08;19.80;57.90
61398;DHT22;47267;48.130;-2.040;2023-11-22T11:08:38;19.90;58.00
61398;DHT22;47267;48.130;-2.040;2023-11-22T11:11:05;19.90;58.00
61398;DHT22;47267;48.130;-2.040;2023-11-22T11:13:32;19.90;58.00
61398;DHT22;47267;48.130;-2.040;2023-11-22T11:15:58;19.90;58.00
61398;DHT22;47267;48.130;-2.040;2023-11-22T11:18:25;19.90;58.00
61398;DHT22;47267;48.130;-2.040;2023-11-22T11:20:57;19.90;57.90
61398;DHT22;47267;48.130;-2.040;2023-11-22T11:23:25;19.90;57.90
61398;DHT22;47267;48.130;-2.040;2023-11-22T11:25:59;19.90;58.00
61398;DHT22;47267;48.130;-2.040;2023-11-22T11:28:43;19.90;57.90
61398;DHT22;47267;48.130;-2.040;2023-11-22T11:31:13;19.90;58.50
61398;DHT22;47267;48.130;-2.040;2023-11-22T11:36:24;19.90;57.90
61398;DHT22;47267;48.130;-2.040;2023-11-22T11:38:53;19.90;57.90
61398;DHT22;47267;48.130;-2.040;2023-11-22T11:41:28;19.90;57.90
61398;DHT22;47267;48.130;-2.040;2023-11-22T11:43:56;19.90;57.90
61398;DHT22;47267;48.130;-2.040;2023-11-22T11:46:21;19.90;57.90
61398;DHT22;47267;48.130;-2.040;2023-11-22T11:48:54;19.90;57.90
61398;DHT22;47267;48.130;-2.040;2023-11-22T11:51:25;19.90;57.80
61398;DHT22;47267;48.130;-2.040;2023-11-22T11:53:51;19.90;57.80
61398;DHT22;47267;48.130;-2.040;2023-11-22T11:56:17;19.90;57.80
61398;DHT22;47267;48.130;-2.040;2023-11-22T11:58:44;19.90;57.80
61398;DHT22;47267;48.130;-2.040;2023-11-22T12:01:14;19.90;57.80
61398;DHT22;47267;48.130;-2.040;2023-11-22T12:03:42;19.90;57.80
61398;DHT22;47267;48.130;-2.040;2023-11-22T12:06:09;19.90;57.80
61398;DHT22;47267;48.130;-2.040;2023-11-22T12:08:35;19.90;57.70
61398;DHT22;47267;48.130;-2.040;2023-11-22T12:11:04;20.00;57.80
61398;DHT22;47267;48.130;-2.040;2023-11-22T12:13:32;19.90;57.70
61398;DHT22;47267;48.130;-2.040;2023-11-22T12:15:58;19.90;57.70
61398;DHT22;47267;48.130;-2.040;2023-11-22T12:18:24;19.90;57.70
61398;DHT22;47267;48.130;-2.040;2023-11-22T12:20:59;19.90;57.70
61398;DHT22;47267;48.130;-2.040;2023-11-22T12:23:26;20.00;57.80
61398;DHT22;47267;48.130;-2.040;2023-11-22T12:25:58;20.00;57.80
61398;DHT22;47267;48.130;-2.040;2023-11-22T12:28:28;20.00;57.80
61398;DHT22;47267;48.130;-2.040;2023-11-22T12:30:54;19.90;57.70
61398;DHT22;47267;48.130;-2.040;2023-11-22T12:33:20;20.00;57.80
61398;DHT22;47267;48.130;-2.040;2023-11-22T12:35:47;20.00;57.80
61398;DHT22;47267;48.130;-2.040;2023-11-22T12:38:14;20.00;58.30
61398;DHT22;47267;48.130;-2.040;2023-11-22T12:40:47;20.00;57.70
61398;DHT22;47267;48.130;-2.040;2023-11-22T12:43:13;20.00;57.70
61398;DHT22;47267;48.130;-2.040;2023-11-22T12:45:42;19.90;57.70
61398;DHT22;47267;48.130;-2.040;2023-11-22T12:48:21;20.00;57.70
61398;DHT22;47267;48.130;-2.040;2023-11-22T12:50:49;20.00;57.80
61398;DHT22;47267;48.130;-2.040;2023-11-22T12:53:15;20.00;57.70
61398;DHT22;47267;48.130;-2.040;2023-11-22T12:55:45;20.00;57.70
61398;DHT22;47267;48.130;-2.040;2023-11-22T12:58:13;20.00;57.70
61398;DHT22;47267;48.130;-2.040;2023-11-22T13:00:39;20.00;57.80
61398;DHT22;47267;48.130;-2.040;2023-11-22T13:03:09;20.00;57.80
61398;DHT22;47267;48.130;-2.040;2023-11-22T13:05:42;20.00;57.80
61398;DHT22;47267;48.130;-2.040;2023-11-22T13:08:09;20.00;57.80
61398;DHT22;47267;48.130;-2.040;2023-11-22T13:10:44;20.00;57.90
61398;DHT22;47267;48.130;-2.040;2023-11-22T13:13:12;20.00;58.40
61398;DHT22;47267;48.130;-2.040;2023-11-22T13:15:38;20.00;57.80
61398;DHT22;47267;48.130;-2.040;2023-11-22T13:18:06;20.00;57.80
61398;DHT22;47267;48.130;-2.040;2023-11-22T13:20:32;20.10;57.90
61398;DHT22;47267;48.130;-2.040;2023-11-22T13:22:58;20.00;57.80
61398;DHT22;47267;48.130;-2.040;2023-11-22T13:25:25;20.10;57.90
61398;DHT22;47267;48.130;-2.040;2023-11-22T13:27:52;20.10;57.90
61398;DHT22;47267;48.130;-2.040;2023-11-22T13:30:19;20.10;57.90
61398;DHT22;47267;48.130;-2.040;2023-11-22T13:32:48;20.10;57.90
61398;DHT22;47267;48.130;-2.040;2023-11-22T13:35:14;20.10;57.90
61398;DHT22;47267;48.130;-2.040;2023-11-22T13:37:44;20.10;57.90
61398;DHT22;47267;48.130;-2.040;2023-11-22T13:40:20;20.10;57.90
61398;DHT22;47267;48.130;-2.040;2023-11-22T13:42:51;20.10;57.90
61398;DHT22;47267;48.130;-2.040;2023-11-22T13:45:20;20.10;57.90
61398;DHT22;47267;48.130;-2.040;2023-11-22T13:47:47;20.10;57.90
61398;DHT22;47267;48.130;-2.040;2023-11-22T13:50:14;20.10;58.00
61398;DHT22;47267;48.130;-2.040;2023-11-22T13:52:46;20.20;58.00
61398;DHT22;47267;48.130;-2.040;2023-11-22T13:55:12;20.20;58.00
61398;DHT22;47267;48.130;-2.040;2023-11-22T13:57:39;20.20;58.00
61398;DHT22;47267;48.130;-2.040;2023-11-22T14:00:06;20.20;58.00
61398;DHT22;47267;48.130;-2.040;2023-11-22T14:02:35;20.20;58.00
61398;DHT22;47267;48.130;-2.040;2023-11-22T14:05:02;20.20;58.00
61398;DHT22;47267;48.130;-2.040;2023-11-22T14:07:28;20.20;58.00
61398;DHT22;47267;48.130;-2.040;2023-11-22T14:09:55;20.20;58.00
61398;DHT22;47267;48.130;-2.040;2023-11-22T14:12:20;20.30;58.00
61398;DHT22;47267;48.130;-2.040;2023-11-22T14:14:46;20.30;58.00
61398;DHT22;47267;48.130;-2.040;2023-11-22T14:17:12;20.30;58.10
61398;DHT22;47267;48.130;-2.040;2023-11-22T14:19:39;20.30;58.10
61398;DHT22;47267;48.130;-2.040;2023-11-22T14:22:05;20.40;58.20
61398;DHT22;47267;48.130;-2.040;2023-11-22T14:24:33;20.40;58.20
61398;DHT22;47267;48.130;-2.040;2023-11-22T14:27:02;20.40;58.20
61398;DHT22;47267;48.130;-2.040;2023-11-22T14:29:29;20.40;58.30
61398;DHT22;47267;48.130;-2.040;2023-11-22T14:31:54;20.40;58.40
61398;DHT22;47267;48.130;-2.040;2023-11-22T14:34:21;20.50;58.40
61398;DHT22;47267;48.130;-2.040;2023-11-22T14:36:46;20.50;58.40
61398;DHT22;47267;48.130;-2.040;2023-11-22T14:39:12;20.50;58.40
61398;DHT22;47267;48.130;-2.040;2023-11-22T14:41:40;20.60;58.50
61398;DHT22;47267;48.130;-2.040;2023-11-22T14:44:06;20.60;58.40
61398;DHT22;47267;48.130;-2.040;2023-11-22T14:46:32;20.60;58.40
61398;DHT22;47267;48.130;-2.040;2023-11-22T14:48:58;20.70;58.40
61398;DHT22;47267;48.130;-2.040;2023-11-22T14:51:24;20.70;58.40
61398;DHT22;47267;48.130;-2.040;2023-11-22T14:53:49;20.80;58.40
61398;DHT22;47267;48.130;-2.040;2023-11-22T14:56:15;20.80;58.30
61398;DHT22;47267;48.130;-2.040;2023-11-22T14:58:41;20.90;58.30
61398;DHT22;47267;48.130;-2.040;2023-11-22T15:01:07;20.90;58.30
61398;DHT22;47267;48.130;-2.040;2023-11-22T15:03:34;21.00;58.30
61398;DHT22;47267;48.130;-2.040;2023-11-22T15:06:01;21.00;58.20
61398;DHT22;47267;48.130;-2.040;2023-11-22T15:08:27;21.00;58.20
61398;DHT22;47267;48.130;-2.040;2023-11-22T15:10:56;21.00;58.10
61398;DHT22;47267;48.130;-2.040;2023-11-22T15:13:22;21.10;58.10
61398;DHT22;47267;48.130;-2.040;2023-11-22T15:15:48;21.10;58.10
61398;DHT22;47267;48.130;-2.040;2023-11-22T15:18:13;21.10;58.00
61398;DHT22;47267;48.130;-2.040;2023-11-22T15:20:39;21.10;58.00